Terminal Aerodrome Forecast
Issued by NWS Hastings, NE

Home | Current Version | Previous Version | Text Only | Print | Product List | Glossary On
Versions: 1 2 3 4 5 6 7 8 9 10 11 12 13 14 15 16 17 18 19
000
FTUS43 KGID 201731
TAFGRI
TAF
KGRI 201731Z 2018/2118 35008KT P6SM SKC
     FM202300 VRB04KT P6SM SKC
     FM211400 15007KT P6SM FEW130
     FM211700 17013G19KT P6SM FEW200=

USA.gov is the U.S. government's official web portal to all federal, state and local government web resources and services.